Time;durP1;ratioP1;P1;durP2;ratioP2;P2;SDS_P1;SDS_P2;PMS_P1;PMS_P2;Temp;Humidity;BMP_temperature;BMP_pressure;BME280_temperature;BME280_humidity;BME280_pressure;Samples;Min_cycle;Max_cycle;Signal;HPM_P1;HPM_P2
2023/12/21 00:02:05;;;;;;;11.32;1.70;;;;;;;;;;5008385;28;20634;-67
2023/12/21 00:04:32;;;;;;;5.90;2.30;;;;;;;;;;5010341;28;20214;-70
2023/12/21 00:06:57;;;;;;;6.60;1.60;;;;;;;;;;5007886;28;20206;-68
2023/12/21 00:09:22;;;;;;;5.20;1.97;;;;;;;;;;5009157;28;20171;-68
2023/12/21 00:11:47;;;;;;;7.63;1.87;;;;;;;;;;5009905;28;20260;-68
2023/12/21 00:14:13;;;;;;;4.40;2.00;;;;;;;;;;5009692;28;20171;-68
2023/12/21 00:16:38;;;;;;;9.93;2.07;;;;;;;;;;5011131;28;20269;-68
2023/12/21 00:19:03;;;;;;;9.20;2.00;;;;;;;;;;5011527;28;20179;-68
2023/12/21 00:21:28;;;;;;;6.82;1.70;;;;;;;;;;5011647;28;20597;-68
2023/12/21 00:23:53;;;;;;;4.65;1.60;;;;;;;;;;5012190;28;20179;-68
2023/12/21 00:26:19;;;;;;;10.33;2.97;;;;;;;;;;5013115;28;20305;-69
2023/12/21 00:28:44;;;;;;;3.83;2.00;;;;;;;;;;5015041;28;20301;-67
2023/12/21 00:31:09;;;;;;;8.53;1.83;;;;;;;;;;5011379;28;20182;-67
2023/12/21 00:33:34;;;;;;;8.52;3.00;;;;;;;;;;5011021;28;20322;-68
2023/12/21 00:36:00;;;;;;;8.38;2.25;;;;;;;;;;5012608;28;20297;-69
2023/12/21 00:38:25;;;;;;;8.40;2.20;;;;;;;;;;5013060;28;20191;-68
2023/12/21 00:40:50;;;;;;;5.95;1.75;;;;;;;;;;5012771;28;20179;-68
2023/12/21 00:43:15;;;;;;;14.55;1.58;;;;;;;;;;5011676;28;20182;-69
2023/12/21 00:45:41;;;;;;;12.30;3.33;;;;;;;;;;5012241;28;20203;-68
2023/12/21 00:48:06;;;;;;;7.80;1.98;;;;;;;;;;5015932;23;20227;-69
2023/12/21 00:50:31;;;;;;;10.87;2.27;;;;;;;;;;4993571;28;20191;-68
2023/12/21 00:52:56;;;;;;;8.03;2.10;;;;;;;;;;4993387;28;20175;-68
2023/12/21 00:55:22;;;;;;;7.20;1.60;;;;;;;;;;4994198;28;20182;-69
2023/12/21 00:57:47;;;;;;;13.00;1.98;;;;;;;;;;4994472;28;20203;-69
2023/12/21 01:00:13;;;;;;;9.45;1.83;;;;;;;;;;4993146;28;20175;-68
2023/12/21 01:02:38;;;;;;;8.27;2.10;;;;;;;;;;4992357;28;20180;-69
2023/12/21 01:05:04;;;;;;;8.73;1.80;;;;;;;;;;4994045;28;20211;-69
2023/12/21 01:07:29;;;;;;;7.30;2.15;;;;;;;;;;4992849;28;20300;-69
2023/12/21 01:09:54;;;;;;;10.20;2.60;;;;;;;;;;4995543;28;20294;-68
2023/12/21 01:12:19;;;;;;;4.53;1.97;;;;;;;;;;4992707;28;20172;-68
2023/12/21 01:14:45;;;;;;;12.90;2.97;;;;;;;;;;4993820;28;20183;-68
2023/12/21 01:17:10;;;;;;;5.60;2.03;;;;;;;;;;4993016;28;20225;-68
2023/12/21 01:19:35;;;;;;;8.97;3.23;;;;;;;;;;4993919;28;20176;-68
2023/12/21 01:22:00;;;;;;;6.63;1.77;;;;;;;;;;4992368;28;20183;-68
2023/12/21 01:24:25;;;;;;;5.57;1.73;;;;;;;;;;4993417;28;20174;-68
2023/12/21 01:26:51;;;;;;;3.90;1.83;;;;;;;;;;4992573;28;20204;-68
2023/12/21 01:29:16;;;;;;;8.50;1.60;;;;;;;;;;4993104;28;20278;-68
2023/12/21 01:31:41;;;;;;;6.90;2.30;;;;;;;;;;4990524;28;20267;-68
2023/12/21 01:34:06;;;;;;;6.20;2.83;;;;;;;;;;4991943;28;20207;-69
2023/12/21 01:36:31;;;;;;;4.97;1.77;;;;;;;;;;4993860;28;20172;-68
2023/12/21 01:38:57;;;;;;;8.43;2.60;;;;;;;;;;4993438;28;20331;-69
2023/12/21 01:41:22;;;;;;;7.77;1.63;;;;;;;;;;4993549;28;20180;-68
2023/12/21 01:43:47;;;;;;;7.63;1.95;;;;;;;;;;4996708;28;20557;-69
2023/12/21 01:46:13;;;;;;;10.10;1.90;;;;;;;;;;4993354;28;20192;-69
2023/12/21 01:48:38;;;;;;;7.93;1.97;;;;;;;;;;4996265;28;20290;-70
2023/12/21 01:51:04;;;;;;;10.00;2.83;;;;;;;;;;4999308;28;20199;-70
2023/12/21 01:53:31;;;;;;;8.27;1.90;;;;;;;;;;4993214;28;20648;-70
2023/12/21 01:55:57;;;;;;;7.22;1.95;;;;;;;;;;4992414;28;20179;-70
2023/12/21 01:58:22;;;;;;;6.73;1.73;;;;;;;;;;4993011;28;20196;-70
2023/12/21 02:00:47;;;;;;;7.97;2.10;;;;;;;;;;4996166;28;20650;-70
2023/12/21 02:03:13;;;;;;;4.65;1.80;;;;;;;;;;4993031;28;20191;-69
2023/12/21 02:05:38;;;;;;;6.57;1.77;;;;;;;;;;4996268;28;20215;-70
2023/12/21 02:08:03;;;;;;;10.80;2.63;;;;;;;;;;4998968;28;20188;-69
2023/12/21 02:10:28;;;;;;;6.23;1.83;;;;;;;;;;4993841;28;20174;-70
2023/12/21 02:12:55;;;;;;;4.80;1.93;;;;;;;;;;4993175;28;20179;-70
2023/12/21 02:15:21;;;;;;;10.90;3.23;;;;;;;;;;4994614;28;20183;-68
2023/12/21 02:17:47;;;;;;;14.40;2.53;;;;;;;;;;4993437;28;20203;-69
2023/12/21 02:20:13;;;;;;;9.60;2.50;;;;;;;;;;4996327;28;20226;-68
2023/12/21 02:22:39;;;;;;;7.33;2.13;;;;;;;;;;4993243;28;20562;-68
2023/12/21 02:25:05;;;;;;;5.47;1.77;;;;;;;;;;4996762;28;20237;-68
2023/12/21 02:27:30;;;;;;;5.10;1.50;;;;;;;;;;4992750;28;20219;-68
2023/12/21 02:29:55;;;;;;;8.03;1.60;;;;;;;;;;4993348;28;20187;-68
2023/12/21 02:32:20;;;;;;;6.03;2.60;;;;;;;;;;4990436;28;20234;-68
2023/12/21 02:34:46;;;;;;;11.13;2.20;;;;;;;;;;4998246;28;20199;-68
2023/12/21 02:37:11;;;;;;;4.20;1.60;;;;;;;;;;4993289;28;20706;-70
2023/12/21 02:39:36;;;;;;;10.20;2.10;;;;;;;;;;4996286;28;20188;-67
2023/12/21 02:42:01;;;;;;;9.00;2.05;;;;;;;;;;4991066;28;20180;-68
2023/12/21 02:44:26;;;;;;;10.77;1.98;;;;;;;;;;4992275;28;20258;-68
2023/12/21 02:46:51;;;;;;;7.47;2.60;;;;;;;;;;4992765;28;20317;-68
2023/12/21 02:49:17;;;;;;;5.78;2.00;;;;;;;;;;4996250;28;20698;-69
2023/12/21 02:51:42;;;;;;;9.07;2.00;;;;;;;;;;4992924;28;20183;-69
2023/12/21 02:54:07;;;;;;;6.35;2.15;;;;;;;;;;4991650;28;20624;-68
2023/12/21 02:56:32;;;;;;;10.35;1.73;;;;;;;;;;4989057;28;20872;-70
2023/12/21 02:58:58;;;;;;;7.43;2.67;;;;;;;;;;4992788;28;20302;-68
2023/12/21 03:01:23;;;;;;;7.00;2.13;;;;;;;;;;4995202;28;20180;-69
2023/12/21 03:03:48;;;;;;;9.73;2.38;;;;;;;;;;4991826;28;20187;-69
2023/12/21 03:06:13;;;;;;;12.77;1.95;;;;;;;;;;4991226;28;20290;-69
2023/12/21 03:08:39;;;;;;;6.43;2.50;;;;;;;;;;4995519;28;20193;-70
2023/12/21 03:11:04;;;;;;;7.97;2.20;;;;;;;;;;4990372;28;20187;-70
2023/12/21 03:13:29;;;;;;;10.00;2.07;;;;;;;;;;4995918;28;20168;-69
2023/12/21 03:15:54;;;;;;;8.93;2.10;;;;;;;;;;4992560;28;20194;-68
2023/12/21 03:18:19;;;;;;;7.47;3.40;;;;;;;;;;4995150;28;20637;-70
2023/12/21 03:20:44;;;;;;;9.27;2.10;;;;;;;;;;4993410;28;20233;-69
2023/12/21 03:23:10;;;;;;;8.90;2.70;;;;;;;;;;4989186;28;20183;-70
2023/12/21 03:25:35;;;;;;;11.90;3.03;;;;;;;;;;4990866;28;20207;-68
2023/12/21 03:28:00;;;;;;;11.30;3.17;;;;;;;;;;4994374;28;20201;-69
2023/12/21 03:30:25;;;;;;;9.50;2.10;;;;;;;;;;4988606;28;20206;-68
2023/12/21 03:32:50;;;;;;;10.98;2.22;;;;;;;;;;4990700;28;20183;-68
2023/12/21 03:35:16;;;;;;;8.02;2.05;;;;;;;;;;4997019;28;20686;-69
2023/12/21 03:37:41;;;;;;;7.20;2.20;;;;;;;;;;4991667;28;20262;-69
2023/12/21 03:40:07;;;;;;;8.57;2.22;;;;;;;;;;4991971;28;20671;-69
2023/12/21 03:42:32;;;;;;;9.57;2.42;;;;;;;;;;4991377;28;20192;-69
2023/12/21 03:44:57;;;;;;;8.07;2.58;;;;;;;;;;4992218;28;20214;-68
2023/12/21 03:47:22;;;;;;;11.40;3.30;;;;;;;;;;4993731;28;20199;-69
2023/12/21 03:49:48;;;;;;;8.20;2.47;;;;;;;;;;4994438;28;20687;-71
2023/12/21 03:52:13;;;;;;;7.88;2.47;;;;;;;;;;4997463;28;20184;-68
2023/12/21 03:54:38;;;;;;;9.63;3.00;;;;;;;;;;4995914;28;20234;-69
2023/12/21 03:57:03;;;;;;;11.40;2.67;;;;;;;;;;4995751;28;20665;-69
2023/12/21 03:59:29;;;;;;;8.88;2.30;;;;;;;;;;4996266;28;20211;-68
2023/12/21 04:01:55;;;;;;;13.73;1.98;;;;;;;;;;4993559;28;20711;-69
2023/12/21 04:04:21;;;;;;;4.93;1.53;;;;;;;;;;4995179;28;20265;-68
2023/12/21 04:06:46;;;;;;;10.02;1.85;;;;;;;;;;4995392;28;20268;-69
2023/12/21 04:09:11;;;;;;;14.05;2.33;;;;;;;;;;4995374;28;20719;-68
2023/12/21 04:11:36;;;;;;;7.70;1.75;;;;;;;;;;4993482;28;20179;-69
2023/12/21 04:14:01;;;;;;;11.23;2.42;;;;;;;;;;5001632;28;20502;-69
2023/12/21 04:16:27;;;;;;;15.27;2.25;;;;;;;;;;4995807;28;20237;-68
2023/12/21 04:18:52;;;;;;;7.53;2.10;;;;;;;;;;4994539;28;20199;-69
2023/12/21 04:21:17;;;;;;;9.38;1.83;;;;;;;;;;4993627;28;20197;-70
2023/12/21 04:23:42;;;;;;;8.48;1.83;;;;;;;;;;4993895;28;20171;-70
2023/12/21 04:26:07;;;;;;;6.18;1.90;;;;;;;;;;4993861;28;20265;-70
2023/12/21 04:28:33;;;;;;;8.10;1.60;;;;;;;;;;4994641;28;20184;-70
2023/12/21 04:30:58;;;;;;;9.77;2.25;;;;;;;;;;4991789;28;20211;-69
2023/12/21 04:33:23;;;;;;;7.82;1.95;;;;;;;;;;4994387;28;20174;-69
2023/12/21 04:35:48;;;;;;;9.68;1.98;;;;;;;;;;4993426;28;20690;-69
2023/12/21 04:38:13;;;;;;;13.88;1.92;;;;;;;;;;4994305;28;20686;-69
2023/12/21 04:40:39;;;;;;;11.70;2.05;;;;;;;;;;4993083;28;20230;-69
2023/12/21 04:43:05;;;;;;;9.73;2.97;;;;;;;;;;4993971;28;20687;-69
2023/12/21 04:45:31;;;;;;;3.78;1.27;;;;;;;;;;4994395;28;20200;-68
2023/12/21 04:47:56;;;;;;;3.97;1.10;;;;;;;;;;4998740;28;20629;-69
2023/12/21 04:50:21;;;;;;;5.60;1.80;;;;;;;;;;4994500;28;20221;-70
2023/12/21 04:52:49;;;;;;;10.95;2.15;;;;;;;;;;4994439;28;20164;-68
2023/12/21 04:55:15;;;;;;;2.05;1.40;;;;;;;;;;4991919;28;20485;-69
2023/12/21 04:57:40;;;;;;;6.15;1.60;;;;;;;;;;4993635;28;20212;-70
2023/12/21 05:00:09;;;;;;;7.18;1.40;;;;;;;;;;4993406;28;20184;-69
2023/12/21 05:02:34;;;;;;;6.05;1.48;;;;;;;;;;4993371;28;20186;-69
2023/12/21 05:04:59;;;;;;;6.88;1.90;;;;;;;;;;4993706;28;20199;-69
2023/12/21 05:07:25;;;;;;;5.93;1.42;;;;;;;;;;4998692;28;20215;-69
2023/12/21 05:09:50;;;;;;;13.07;1.95;;;;;;;;;;4993836;28;20182;-69
2023/12/21 05:12:15;;;;;;;9.55;1.88;;;;;;;;;;4992802;28;20179;-70
2023/12/21 05:14:40;;;;;;;9.43;2.47;;;;;;;;;;4999976;28;20188;-69
2023/12/21 05:17:06;;;;;;;4.27;1.70;;;;;;;;;;4992892;28;20663;-69
2023/12/21 05:19:32;;;;;;;7.15;1.50;;;;;;;;;;4994313;28;20183;-70
2023/12/21 05:21:57;;;;;;;7.20;2.10;;;;;;;;;;4992393;28;20192;-69
2023/12/21 05:24:22;;;;;;;10.60;2.13;;;;;;;;;;4993343;28;20205;-70
2023/12/21 05:26:47;;;;;;;6.77;1.93;;;;;;;;;;4992863;28;20187;-70
2023/12/21 05:29:12;;;;;;;10.02;2.25;;;;;;;;;;4993680;28;20192;-70
2023/12/21 05:31:38;;;;;;;5.35;2.08;;;;;;;;;;4992325;28;20563;-70
2023/12/21 05:34:03;;;;;;;5.83;1.30;;;;;;;;;;4992756;28;20194;-68
2023/12/21 05:36:29;;;;;;;6.10;1.50;;;;;;;;;;4993371;28;20647;-69
2023/12/21 05:38:54;;;;;;;4.50;1.70;;;;;;;;;;4993314;28;20703;-69
2023/12/21 05:41:19;;;;;;;11.17;1.53;;;;;;;;;;4993588;28;20183;-68
2023/12/21 05:43:44;;;;;;;5.03;1.87;;;;;;;;;;4991747;28;20190;-68
2023/12/21 05:46:09;;;;;;;7.30;1.90;;;;;;;;;;4992159;28;20729;-68
2023/12/21 05:48:35;;;;;;;5.13;1.98;;;;;;;;;;4998698;28;20769;-70
2023/12/21 05:51:00;;;;;;;4.60;1.40;;;;;;;;;;4991959;28;20372;-69
2023/12/21 05:53:26;;;;;;;5.60;1.47;;;;;;;;;;4993721;28;20298;-69
2023/12/21 05:55:51;;;;;;;5.43;1.17;;;;;;;;;;4994952;28;20567;-70
2023/12/21 05:58:17;;;;;;;9.93;2.33;;;;;;;;;;4994174;28;20202;-70
2023/12/21 06:00:42;;;;;;;8.87;1.97;;;;;;;;;;4992997;28;20179;-68
2023/12/21 06:03:07;;;;;;;9.73;2.17;;;;;;;;;;4992018;28;20180;-68
2023/12/21 06:05:32;;;;;;;6.60;2.47;;;;;;;;;;4996865;28;20200;-71
2023/12/21 06:07:58;;;;;;;5.10;1.57;;;;;;;;;;4992744;28;20191;-68
2023/12/21 06:10:23;;;;;;;3.97;1.77;;;;;;;;;;4997163;28;20711;-68
2023/12/21 06:12:48;;;;;;;8.80;2.20;;;;;;;;;;4991847;28;20192;-67
2023/12/21 06:15:13;;;;;;;9.50;4.13;;;;;;;;;;4989257;28;22306;-68
2023/12/21 06:17:39;;;;;;;8.97;2.03;;;;;;;;;;4996040;28;20204;-69
2023/12/21 06:20:04;;;;;;;9.73;2.40;;;;;;;;;;4992699;28;20311;-69
2023/12/21 06:22:29;;;;;;;5.67;1.97;;;;;;;;;;4997074;28;20254;-68
2023/12/21 06:24:54;;;;;;;6.57;2.70;;;;;;;;;;4991379;28;20223;-70
2023/12/21 06:27:20;;;;;;;8.00;2.10;;;;;;;;;;4992214;28;20191;-69
2023/12/21 06:29:45;;;;;;;7.53;2.33;;;;;;;;;;4992238;28;20184;-68
2023/12/21 06:32:10;;;;;;;7.83;1.97;;;;;;;;;;4989355;28;20188;-68
2023/12/21 06:34:35;;;;;;;9.20;2.13;;;;;;;;;;4991467;28;20178;-69
2023/12/21 06:37:03;;;;;;;4.93;1.97;;;;;;;;;;4991110;28;20183;-69
2023/12/21 06:39:28;;;;;;;12.87;2.20;;;;;;;;;;4989752;28;20179;-68
2023/12/21 06:41:53;;;;;;;5.30;1.60;;;;;;;;;;4992917;28;20191;-68
2023/12/21 06:44:19;;;;;;;7.47;2.00;;;;;;;;;;4997526;28;20164;-69
2023/12/21 06:46:44;;;;;;;5.87;2.10;;;;;;;;;;4991370;28;20204;-69
2023/12/21 06:49:10;;;;;;;6.97;2.22;;;;;;;;;;4997243;28;20223;-69
2023/12/21 06:51:35;;;;;;;8.00;1.80;;;;;;;;;;4995137;28;20184;-69
2023/12/21 06:54:01;;;;;;;7.95;1.95;;;;;;;;;;4990699;28;20274;-70
2023/12/21 06:56:26;;;;;;;9.60;2.80;;;;;;;;;;4991120;28;20178;-69
2023/12/21 06:58:51;;;;;;;4.53;1.63;;;;;;;;;;4993383;28;20226;-67
2023/12/21 07:01:16;;;;;;;5.45;1.42;;;;;;;;;;4990724;28;20572;-69
2023/12/21 07:03:41;;;;;;;6.90;2.13;;;;;;;;;;4995347;28;20198;-68
2023/12/21 07:06:08;;;;;;;4.80;1.48;;;;;;;;;;4992173;28;20265;-69
2023/12/21 07:08:33;;;;;;;11.10;1.67;;;;;;;;;;4995246;28;20203;-69
2023/12/21 07:10:59;;;;;;;5.53;1.57;;;;;;;;;;4993176;28;20179;-69
2023/12/21 07:13:24;;;;;;;8.77;2.27;;;;;;;;;;4995224;28;20391;-67
2023/12/21 07:15:49;;;;;;;5.25;1.48;;;;;;;;;;4990962;28;20171;-68
2023/12/21 07:18:14;;;;;;;5.03;1.53;;;;;;;;;;4994357;28;20206;-68
2023/12/21 07:20:39;;;;;;;5.50;1.43;;;;;;;;;;4993880;28;20671;-68
2023/12/21 07:23:05;;;;;;;6.33;1.60;;;;;;;;;;4990439;28;20195;-69
2023/12/21 07:25:30;;;;;;;5.50;1.57;;;;;;;;;;4995245;28;20211;-69
2023/12/21 07:27:55;;;;;;;6.90;1.60;;;;;;;;;;4998220;28;20262;-68
2023/12/21 07:30:20;;;;;;;9.30;2.13;;;;;;;;;;4993845;28;20183;-69
2023/12/21 07:32:45;;;;;;;4.00;1.63;;;;;;;;;;4998414;28;20185;-68
2023/12/21 07:35:11;;;;;;;7.00;1.70;;;;;;;;;;4996016;28;20705;-69
2023/12/21 07:37:36;;;;;;;13.07;2.77;;;;;;;;;;4993548;28;20285;-69
2023/12/21 07:40:03;;;;;;;12.07;2.20;;;;;;;;;;4993697;28;20211;-69
2023/12/21 07:42:28;;;;;;;8.87;2.23;;;;;;;;;;4993140;28;21008;-70
2023/12/21 07:44:53;;;;;;;10.13;2.60;;;;;;;;;;4995571;28;20290;-69
2023/12/21 07:47:18;;;;;;;7.20;2.37;;;;;;;;;;4995778;28;20192;-71
2023/12/21 07:49:44;;;;;;;8.50;1.93;;;;;;;;;;4995837;28;20175;-68
2023/12/21 07:52:09;;;;;;;11.07;2.30;;;;;;;;;;4994012;28;20274;-69
2023/12/21 07:54:34;;;;;;;8.47;2.10;;;;;;;;;;4994245;28;20666;-70
2023/12/21 07:56:59;;;;;;;7.53;2.90;;;;;;;;;;4997314;28;20183;-70
2023/12/21 07:59:25;;;;;;;7.57;2.43;;;;;;;;;;4997117;28;20612;-71
2023/12/21 08:01:50;;;;;;;14.50;1.73;;;;;;;;;;4994291;28;20183;-70
2023/12/21 08:04:16;;;;;;;11.10;2.33;;;;;;;;;;4998611;28;20188;-69
2023/12/21 08:06:41;;;;;;;16.80;3.67;;;;;;;;;;4994042;28;20203;-70
2023/12/21 08:09:06;;;;;;;10.43;2.30;;;;;;;;;;4994177;28;20281;-69
2023/12/21 08:11:32;;;;;;;10.40;2.87;;;;;;;;;;4994308;28;20175;-70
2023/12/21 08:13:57;;;;;;;8.13;2.07;;;;;;;;;;4995579;28;20172;-70
2023/12/21 08:16:22;;;;;;;16.37;2.80;;;;;;;;;;4993137;28;20191;-69
2023/12/21 08:18:47;;;;;;;15.40;3.23;;;;;;;;;;4995204;28;20195;-70
2023/12/21 08:21:13;;;;;;;12.87;2.70;;;;;;;;;;4993991;28;20180;-70
2023/12/21 08:23:39;;;;;;;8.00;2.13;;;;;;;;;;4993960;28;20234;-69
2023/12/21 08:26:05;;;;;;;7.57;2.23;;;;;;;;;;4999218;28;20709;-70
2023/12/21 08:28:31;;;;;;;20.20;2.70;;;;;;;;;;4993244;28;20199;-70
2023/12/21 08:30:57;;;;;;;15.03;2.50;;;;;;;;;;4993877;28;20583;-71
2023/12/21 08:33:22;;;;;;;11.20;2.60;;;;;;;;;;4996677;28;20623;-70
2023/12/21 08:35:47;;;;;;;6.87;2.57;;;;;;;;;;4992607;28;20199;-71
2023/12/21 08:38:12;;;;;;;3.40;1.67;;;;;;;;;;4992825;28;20283;-70
2023/12/21 08:40:37;;;;;;;8.20;2.13;;;;;;;;;;4995129;28;20187;-70
2023/12/21 08:43:03;;;;;;;12.00;1.83;;;;;;;;;;4995624;28;20191;-70
2023/12/21 08:45:28;;;;;;;10.40;1.77;;;;;;;;;;4993912;28;20292;-70
2023/12/21 08:47:54;;;;;;;3.50;1.23;;;;;;;;;;4993907;28;20234;-70
2023/12/21 08:50:19;;;;;;;7.27;1.13;;;;;;;;;;4995954;28;20238;-69
2023/12/21 08:52:45;;;;;;;8.13;1.60;;;;;;;;;;4997322;28;20643;-70
2023/12/21 08:55:10;;;;;;;7.47;1.93;;;;;;;;;;4989435;28;20373;-69
2023/12/21 08:57:38;;;;;;;5.05;1.58;;;;;;;;;;4995785;28;20199;-70
2023/12/21 09:00:05;;;;;;;8.67;1.63;;;;;;;;;;4993169;28;20656;-69
2023/12/21 09:02:31;;;;;;;6.20;1.30;;;;;;;;;;4996049;28;20246;-69
2023/12/21 09:04:56;;;;;;;11.00;1.90;;;;;;;;;;4996146;28;20203;-70
2023/12/21 09:07:24;;;;;;;7.53;1.70;;;;;;;;;;4994947;28;20199;-69
2023/12/21 09:09:49;;;;;;;6.00;1.77;;;;;;;;;;4992555;28;20179;-70
2023/12/21 09:12:14;;;;;;;4.50;1.50;;;;;;;;;;4995992;28;20660;-69
2023/12/21 09:14:39;;;;;;;8.25;2.33;;;;;;;;;;4994014;28;20179;-69
2023/12/21 09:17:05;;;;;;;5.25;1.80;;;;;;;;;;4992068;28;20215;-69
2023/12/21 09:19:32;;;;;;;4.05;1.27;;;;;;;;;;4992767;28;20194;-70
2023/12/21 09:21:58;;;;;;;8.13;1.88;;;;;;;;;;4997235;28;20190;-70
2023/12/21 09:24:23;;;;;;;10.70;2.53;;;;;;;;;;4994937;28;20175;-69
2023/12/21 09:26:48;;;;;;;7.45;1.70;;;;;;;;;;4992496;28;20211;-70
2023/12/21 09:29:14;;;;;;;8.60;1.38;;;;;;;;;;4992405;28;20196;-70
2023/12/21 09:31:39;;;;;;;9.85;2.03;;;;;;;;;;4991128;28;20203;-70
2023/12/21 09:34:07;;;;;;;7.47;2.35;;;;;;;;;;4991045;28;20722;-68
2023/12/21 09:36:32;;;;;;;4.70;0.88;;;;;;;;;;4993367;28;20179;-70
2023/12/21 09:38:57;;;;;;;8.25;1.65;;;;;;;;;;4992580;28;20210;-70
2023/12/21 09:41:23;;;;;;;2.95;1.33;;;;;;;;;;4992282;28;20183;-71
2023/12/21 09:43:50;;;;;;;6.13;1.13;;;;;;;;;;4992648;28;20190;-71
2023/12/21 09:46:16;;;;;;;5.43;1.65;;;;;;;;;;4994800;28;20302;-69
2023/12/21 09:48:42;;;;;;;5.35;1.05;;;;;;;;;;4993530;28;20258;-70
2023/12/21 09:51:08;;;;;;;6.32;0.98;;;;;;;;;;4996447;28;20175;-70
2023/12/21 09:53:35;;;;;;;4.03;1.20;;;;;;;;;;4993240;28;20372;-70
2023/12/21 09:56:01;;;;;;;5.30;1.58;;;;;;;;;;4992479;28;20560;-70
2023/12/21 09:58:27;;;;;;;8.45;1.15;;;;;;;;;;4992058;28;20242;-71
2023/12/21 10:00:52;;;;;;;5.25;1.17;;;;;;;;;;4987858;28;20682;-71
2023/12/21 10:03:18;;;;;;;2.53;1.00;;;;;;;;;;4990323;28;20196;-70
2023/12/21 10:05:43;;;;;;;10.20;1.58;;;;;;;;;;4987777;28;20204;-71
2023/12/21 10:08:09;;;;;;;6.45;1.48;;;;;;;;;;4986700;28;20574;-69
2023/12/21 10:10:35;;;;;;;5.10;1.00;;;;;;;;;;4991151;28;20180;-69
2023/12/21 10:13:02;;;;;;;5.72;0.98;;;;;;;;;;4991746;28;20183;-69
2023/12/21 10:15:30;;;;;;;5.32;1.35;;;;;;;;;;4988856;28;20171;-68
2023/12/21 10:17:55;;;;;;;8.50;1.05;;;;;;;;;;4988571;28;20203;-71
2023/12/21 10:20:23;;;;;;;5.85;1.45;;;;;;;;;;4991427;28;20270;-71
2023/12/21 10:22:48;;;;;;;10.52;1.50;;;;;;;;;;4991535;28;20183;-70
2023/12/21 10:25:13;;;;;;;4.97;0.95;;;;;;;;;;4992459;28;20267;-70
2023/12/21 10:27:40;;;;;;;3.30;1.02;;;;;;;;;;4991950;28;20214;-70
2023/12/21 10:30:06;;;;;;;5.70;1.27;;;;;;;;;;4989464;28;20234;-69
2023/12/21 10:32:32;;;;;;;9.50;1.90;;;;;;;;;;4987720;28;20187;-69
2023/12/21 10:34:59;;;;;;;3.08;1.20;;;;;;;;;;4989875;28;20187;-69
2023/12/21 10:37:24;;;;;;;12.70;1.48;;;;;;;;;;4989642;28;20239;-69
2023/12/21 10:39:49;;;;;;;2.00;1.02;;;;;;;;;;4991603;28;20207;-69
2023/12/21 10:42:15;;;;;;;9.05;1.23;;;;;;;;;;4995314;28;20180;-68
2023/12/21 10:44:43;;;;;;;4.10;1.48;;;;;;;;;;4992241;28;20186;-69
2023/12/21 10:47:08;;;;;;;8.50;1.75;;;;;;;;;;4991192;28;20258;-69
2023/12/21 10:49:34;;;;;;;5.43;1.52;;;;;;;;;;4993965;28;20255;-70
2023/12/21 10:52:00;;;;;;;7.80;2.13;;;;;;;;;;4994521;28;20180;-70
2023/12/21 10:54:26;;;;;;;7.80;2.00;;;;;;;;;;4989717;28;20183;-70
2023/12/21 10:56:51;;;;;;;8.98;2.08;;;;;;;;;;4988325;28;20198;-69
2023/12/21 10:59:19;;;;;;;8.57;1.55;;;;;;;;;;4987710;28;20199;-69
2023/12/21 11:01:45;;;;;;;8.25;2.05;;;;;;;;;;4989062;28;20238;-70
2023/12/21 11:04:11;;;;;;;5.68;1.60;;;;;;;;;;4990042;28;20734;-68
2023/12/21 11:06:36;;;;;;;4.45;1.45;;;;;;;;;;4996088;28;20219;-69
2023/12/21 11:09:06;;;;;;;4.88;2.03;;;;;;;;;;4992731;28;20592;-70
2023/12/21 11:11:32;;;;;;;4.60;1.75;;;;;;;;;;4987576;28;20171;-70
2023/12/21 11:13:57;;;;;;;10.45;2.08;;;;;;;;;;4990780;28;20187;-70
2023/12/21 11:16:25;;;;;;;5.00;1.55;;;;;;;;;;4990487;28;20191;-69
2023/12/21 11:18:51;;;;;;;5.70;2.30;;;;;;;;;;4996937;28;20278;-70
2023/12/21 11:21:18;;;;;;;4.53;1.63;;;;;;;;;;4994570;28;20230;-70
2023/12/21 11:23:44;;;;;;;8.90;1.80;;;;;;;;;;4988826;28;20314;-70
2023/12/21 11:26:10;;;;;;;7.25;1.50;;;;;;;;;;4986299;28;20203;-69
2023/12/21 11:28:35;;;;;;;4.57;1.95;;;;;;;;;;4988144;28;20203;-69
2023/12/21 11:31:21;;;;;;;5.93;1.98;;;;;;;;;;4989181;28;20263;-70
2023/12/21 11:33:46;;;;;;;7.32;2.67;;;;;;;;;;4991782;28;20591;-69
2023/12/21 11:36:21;;;;;;;7.60;1.77;;;;;;;;;;4990765;28;20185;-69
2023/12/21 11:38:47;;;;;;;4.78;2.33;;;;;;;;;;4991375;28;20210;-69
2023/12/21 11:41:15;;;;;;;10.65;1.75;;;;;;;;;;4989768;28;20184;-69
2023/12/21 11:43:41;;;;;;;7.10;2.10;;;;;;;;;;4987627;28;20275;-70
2023/12/21 11:46:10;;;;;;;7.35;2.00;;;;;;;;;;4990284;28;20199;-70
2023/12/21 11:48:37;;;;;;;4.63;2.03;;;;;;;;;;4995268;28;20253;-70
2023/12/21 11:51:02;;;;;;;4.00;1.67;;;;;;;;;;4992392;28;20219;-70
2023/12/21 11:53:28;;;;;;;5.68;1.50;;;;;;;;;;4990559;28;20179;-69
2023/12/21 11:55:53;;;;;;;9.15;2.13;;;;;;;;;;4990886;28;20192;-69
2023/12/21 11:58:19;;;;;;;5.47;1.70;;;;;;;;;;4992572;28;20195;-70
2023/12/21 12:00:48;;;;;;;9.70;2.42;;;;;;;;;;4991119;28;20191;-70
2023/12/21 12:03:14;;;;;;;7.82;1.48;;;;;;;;;;4991737;28;20186;-70
2023/12/21 12:05:39;;;;;;;5.35;1.52;;;;;;;;;;4993808;28;20654;-70
2023/12/21 12:08:05;;;;;;;10.73;1.70;;;;;;;;;;4992282;28;20207;-70
2023/12/21 12:10:30;;;;;;;2.67;0.95;;;;;;;;;;4991425;28;20215;-70
2023/12/21 12:12:55;;;;;;;4.57;1.40;;;;;;;;;;4991406;28;20179;-69
2023/12/21 12:15:20;;;;;;;5.03;1.50;;;;;;;;;;4994018;28;20176;-70
2023/12/21 12:17:45;;;;;;;4.20;0.93;;;;;;;;;;4993904;28;20234;-69
2023/12/21 12:20:11;;;;;;;4.40;0.98;;;;;;;;;;4994602;28;20180;-69
2023/12/21 12:22:36;;;;;;;4.15;0.82;;;;;;;;;;4992568;28;20180;-69
2023/12/21 12:25:02;;;;;;;3.28;1.15;;;;;;;;;;4992883;28;20219;-70
2023/12/21 12:27:28;;;;;;;10.57;1.48;;;;;;;;;;4993936;28;20730;-70
2023/12/21 12:29:54;;;;;;;9.73;2.25;;;;;;;;;;4993365;28;20210;-71
2023/12/21 12:32:20;;;;;;;6.05;1.48;;;;;;;;;;4992268;28;20242;-70
2023/12/21 12:34:45;;;;;;;4.75;1.30;;;;;;;;;;4993669;28;20183;-70
2023/12/21 12:37:11;;;;;;;3.05;1.20;;;;;;;;;;4998927;28;20171;-70
2023/12/21 12:39:37;;;;;;;3.08;0.88;;;;;;;;;;4993546;28;20175;-70
2023/12/21 12:42:05;;;;;;;5.78;1.02;;;;;;;;;;4992669;28;20176;-70
2023/12/21 12:44:30;;;;;;;6.15;2.20;;;;;;;;;;5000862;28;20717;-69
2023/12/21 12:46:56;;;;;;;4.68;1.20;;;;;;;;;;4992398;28;20239;-70
2023/12/21 12:49:22;;;;;;;4.38;1.30;;;;;;;;;;4997536;28;20257;-69
2023/12/21 12:51:47;;;;;;;9.00;1.55;;;;;;;;;;4992210;28;20444;-70
2023/12/21 12:54:12;;;;;;;5.10;1.48;;;;;;;;;;4992854;28;20180;-70
2023/12/21 12:56:47;;;;;;;4.22;1.02;;;;;;;;;;4993051;28;20192;-70
2023/12/21 12:59:13;;;;;;;7.68;1.35;;;;;;;;;;4992145;28;20199;-70
2023/12/21 13:01:38;;;;;;;6.72;1.63;;;;;;;;;;4993695;28;20172;-69
2023/12/21 13:04:03;;;;;;;4.97;1.08;;;;;;;;;;4994082;28;20263;-70
2023/12/21 13:06:28;;;;;;;9.57;1.80;;;;;;;;;;4993509;28;20196;-69
2023/12/21 13:08:54;;;;;;;3.45;2.00;;;;;;;;;;4994823;28;20191;-69
2023/12/21 13:11:20;;;;;;;5.05;1.20;;;;;;;;;;4993432;28;20172;-69
2023/12/21 13:13:46;;;;;;;11.27;2.10;;;;;;;;;;4991536;28;20194;-69
2023/12/21 13:16:13;;;;;;;3.72;1.23;;;;;;;;;;4993299;28;20534;-70
2023/12/21 13:18:39;;;;;;;4.60;1.67;;;;;;;;;;4993134;28;20405;-69
2023/12/21 13:21:04;;;;;;;5.45;1.77;;;;;;;;;;4986943;28;20183;-69
2023/12/21 13:23:29;;;;;;;4.55;1.63;;;;;;;;;;4993484;28;20206;-70
2023/12/21 13:25:54;;;;;;;5.50;1.17;;;;;;;;;;4992654;28;20303;-70
2023/12/21 13:28:19;;;;;;;10.80;1.63;;;;;;;;;;4992301;28;20202;-70
2023/12/21 13:30:47;;;;;;;4.90;2.00;;;;;;;;;;4991473;28;20582;-71
2023/12/21 13:33:12;;;;;;;6.05;2.00;;;;;;;;;;4992251;28;20178;-70
2023/12/21 13:35:37;;;;;;;8.13;1.17;;;;;;;;;;4991640;28;20179;-69
2023/12/21 13:38:03;;;;;;;7.22;1.73;;;;;;;;;;4996492;28;20554;-69
2023/12/21 13:40:32;;;;;;;7.65;1.88;;;;;;;;;;4993998;28;20176;-69
2023/12/21 13:42:57;;;;;;;5.72;2.00;;;;;;;;;;4993205;28;20195;-70
2023/12/21 13:45:22;;;;;;;13.40;2.33;;;;;;;;;;4998443;28;20249;-70
2023/12/21 13:47:47;;;;;;;7.15;1.80;;;;;;;;;;4996353;28;20215;-70
2023/12/21 13:50:12;;;;;;;6.22;1.75;;;;;;;;;;4990362;28;20271;-70
2023/12/21 13:52:38;;;;;;;12.23;1.88;;;;;;;;;;4991766;28;20562;-70
2023/12/21 13:55:03;;;;;;;5.80;1.45;;;;;;;;;;4991353;28;20230;-69
2023/12/21 13:57:29;;;;;;;5.75;1.73;;;;;;;;;;4995226;28;20190;-69
2023/12/21 13:59:55;;;;;;;10.27;1.80;;;;;;;;;;4991449;28;20213;-70
2023/12/21 14:02:20;;;;;;;11.40;2.25;;;;;;;;;;4991953;28;20226;-70
2023/12/21 14:04:45;;;;;;;10.30;2.10;;;;;;;;;;4991383;28;20183;-71
2023/12/21 14:07:11;;;;;;;9.10;2.17;;;;;;;;;;4998476;28;20688;-70
2023/12/21 14:09:38;;;;;;;10.13;1.95;;;;;;;;;;4995214;28;20188;-69
2023/12/21 14:12:04;;;;;;;9.40;1.83;;;;;;;;;;4990457;28;20734;-69
2023/12/21 14:14:29;;;;;;;11.55;2.80;;;;;;;;;;4996243;28;20335;-69
2023/12/21 14:16:54;;;;;;;7.38;2.03;;;;;;;;;;4989802;28;20184;-69
2023/12/21 14:19:19;;;;;;;9.15;2.03;;;;;;;;;;4997759;28;20255;-69
2023/12/21 14:21:45;;;;;;;7.80;1.83;;;;;;;;;;4991060;28;20191;-70
2023/12/21 14:24:10;;;;;;;5.85;2.13;;;;;;;;;;4984303;28;20631;-69
2023/12/21 14:26:36;;;;;;;11.10;1.95;;;;;;;;;;4995684;28;20289;-70
2023/12/21 14:29:01;;;;;;;18.45;3.15;;;;;;;;;;4990166;28;20213;-69
2023/12/21 14:31:26;;;;;;;9.25;2.35;;;;;;;;;;4990455;28;20176;-70